createdAt,value
2018-04-28T00:01:15.064Z,6.80
2018-04-28T00:03:42.604Z,6.70
2018-04-28T00:06:10.935Z,6.73
2018-04-28T00:08:39.192Z,6.93
2018-04-28T00:11:06.765Z,7.40
2018-04-28T00:13:34.330Z,7.20
2018-04-28T00:16:04.114Z,7.20
2018-04-28T00:18:31.651Z,6.10
2018-04-28T00:20:59.208Z,7.80
2018-04-28T00:23:26.775Z,7.43
2018-04-28T00:26:01.549Z,7.17
2018-04-28T00:28:36.928Z,8.87
2018-04-28T00:31:20.028Z,7.10
2018-04-28T00:33:48.408Z,7.73
2018-04-28T00:36:16.879Z,7.93
2018-04-28T00:39:01.895Z,7.90
2018-04-28T00:41:31.913Z,9.40
2018-04-28T00:44:17.135Z,8.63
2018-04-28T00:46:47.171Z,8.40
2018-04-28T00:49:19.056Z,7.93
2018-04-28T00:51:48.379Z,8.93
2018-04-28T00:54:29.316Z,10.50
2018-04-28T00:57:03.465Z,9.40
2018-04-28T00:59:31.042Z,8.70
2018-04-28T01:01:58.588Z,9.80
2018-04-28T01:04:38.196Z,9.07
2018-04-28T01:07:06.511Z,9.07
2018-04-28T01:09:34.078Z,9.40
2018-04-28T01:12:01.627Z,10.10
2018-04-28T01:14:36.000Z,9.37
2018-04-28T01:17:03.542Z,9.17
2018-04-28T01:22:44.950Z,8.67
2018-04-28T01:25:16.071Z,9.23
2018-04-28T01:27:46.215Z,8.83
2018-04-28T01:30:20.395Z,9.37
2018-04-28T01:36:08.737Z,10.20
2018-04-28T01:38:37.134Z,9.67
2018-04-28T01:41:14.502Z,8.67
2018-04-28T01:43:48.585Z,9.10
2018-04-28T01:46:21.707Z,8.00
2018-04-28T01:48:50.016Z,8.47
2018-04-28T01:51:23.502Z,8.57
2018-04-28T01:57:00.130Z,7.77
2018-04-28T01:59:41.907Z,7.70
2018-04-28T02:02:10.138Z,9.30
2018-04-28T02:04:39.586Z,10.40
2018-04-28T02:07:07.924Z,10.83
2018-04-28T02:09:54.726Z,9.73
2018-04-28T02:12:31.662Z,10.50
2018-04-28T02:15:05.099Z,11.93
2018-04-28T02:17:35.111Z,10.83
2018-04-28T02:20:05.420Z,10.57
2018-04-28T02:25:50.250Z,9.30
2018-04-28T02:28:25.487Z,8.97
2018-04-28T02:31:04.858Z,8.47
2018-04-28T02:33:32.414Z,9.93
2018-04-28T02:36:05.843Z,10.87
2018-04-28T02:38:35.314Z,10.33
2018-04-28T02:44:01.181Z,9.30
2018-04-28T02:46:32.435Z,8.43
2018-04-28T02:49:06.308Z,10.30
2018-04-28T02:54:37.031Z,9.17
2018-04-28T03:00:29.809Z,9.30
2018-04-28T03:03:00.287Z,10.70
2018-04-28T03:05:33.266Z,8.83
2018-04-28T03:08:09.134Z,9.50
2018-04-28T03:10:43.198Z,9.63
2018-04-28T03:13:13.512Z,10.03
2018-04-28T03:15:41.841Z,9.13
2018-04-28T03:18:09.383Z,10.30
2018-04-28T03:20:45.843Z,11.50
2018-04-28T03:23:21.763Z,10.50
2018-04-28T03:25:52.258Z,12.27
2018-04-28T03:28:38.290Z,10.13
2018-04-28T03:31:10.435Z,11.13
2018-04-28T03:33:44.705Z,11.97
2018-04-28T03:36:18.078Z,11.17
2018-04-28T03:41:53.807Z,11.03
2018-04-28T03:47:44.145Z,11.97
2018-04-28T03:50:28.519Z,10.80
2018-04-28T03:53:05.771Z,11.43
2018-04-28T03:55:34.108Z,12.23
2018-04-28T03:58:13.402Z,12.87
2018-04-28T04:00:52.762Z,12.80
2018-04-28T04:03:21.815Z,12.30
2018-04-28T04:05:59.042Z,6.03
2018-04-28T04:08:38.690Z,5.83
2018-04-28T04:11:18.231Z,9.70
2018-04-28T04:13:50.666Z,10.03
2018-04-28T04:16:24.678Z,8.70
2018-04-28T04:19:04.031Z,9.80
2018-04-28T04:21:34.204Z,9.50
2018-04-28T04:24:07.263Z,9.57
2018-04-28T04:26:56.466Z,9.23
2018-04-28T04:29:47.521Z,7.60
2018-04-28T04:32:16.459Z,8.03
2018-04-28T04:34:50.424Z,6.23
2018-04-28T04:37:27.572Z,5.90
2018-04-28T04:39:55.903Z,7.40
2018-04-28T04:45:26.776Z,7.77
2018-04-28T04:47:56.755Z,6.53
2018-04-28T04:50:29.083Z,8.03
2018-04-28T04:53:09.365Z,8.17
2018-04-28T04:55:48.442Z,7.90
2018-04-28T04:58:18.899Z,7.20
2018-04-28T05:00:49.946Z,8.00
2018-04-28T05:03:23.115Z,7.33
2018-04-28T05:08:53.027Z,8.17
2018-04-28T05:11:22.177Z,7.33
2018-04-28T05:14:05.394Z,6.50
2018-04-28T05:16:40.635Z,6.70
2018-04-28T05:19:20.677Z,7.30
2018-04-28T05:21:54.565Z,8.27
2018-04-28T05:27:28.178Z,9.33
2018-04-28T05:30:02.386Z,8.60
2018-04-28T05:32:36.451Z,7.63
2018-04-28T05:35:13.735Z,8.20
2018-04-28T05:37:47.130Z,9.40
2018-04-28T05:40:26.686Z,8.70
2018-04-28T05:43:06.126Z,8.47
2018-04-28T05:45:48.471Z,9.13
2018-04-28T05:51:44.823Z,9.20
2018-04-28T05:54:20.860Z,9.80
2018-04-28T06:00:01.674Z,9.60
2018-04-28T06:02:38.888Z,10.17
2018-04-28T06:08:15.405Z,9.20
2018-04-28T06:10:49.508Z,9.50
2018-04-28T06:16:33.870Z,9.33
2018-04-28T06:19:08.963Z,9.30
2018-04-28T06:21:37.268Z,9.00
2018-04-28T06:24:04.932Z,9.37
2018-04-28T06:26:32.478Z,8.20
2018-04-28T06:29:00.811Z,8.90
2018-04-28T06:31:28.353Z,8.00
2018-04-28T06:33:55.918Z,7.23
2018-04-28T06:36:24.230Z,7.53
2018-04-28T06:38:51.789Z,8.20
2018-04-28T06:41:19.420Z,6.80
2018-04-28T06:43:46.920Z,6.67
2018-04-28T06:46:15.241Z,6.80
2018-04-28T06:48:42.798Z,6.60
2018-04-28T06:51:10.449Z,7.13
2018-04-28T06:53:37.931Z,6.80
2018-04-28T06:56:06.254Z,5.80
2018-04-28T06:58:33.931Z,5.40
2018-04-28T07:01:01.489Z,5.93
2018-04-28T07:03:29.027Z,5.77
2018-04-28T07:05:57.364Z,6.30
2018-04-28T07:08:24.907Z,5.23
2018-04-28T07:10:52.541Z,5.70
2018-04-28T07:13:20.038Z,5.93
2018-04-28T07:15:48.367Z,6.43
2018-04-28T07:18:15.906Z,5.30
2018-04-28T07:20:43.478Z,5.40
2018-04-28T07:23:11.019Z,5.63
2018-04-28T07:25:38.584Z,6.17
2018-04-28T07:28:06.129Z,5.40
2018-04-28T07:30:33.698Z,4.90
2018-04-28T07:33:01.346Z,5.10
2018-04-28T07:35:28.866Z,5.40
2018-04-28T07:37:56.403Z,4.77
2018-04-28T07:40:23.969Z,5.23
2018-04-28T07:42:51.507Z,5.07
2018-04-28T07:45:19.874Z,4.97
2018-04-28T07:47:47.415Z,4.50
2018-04-28T07:50:14.978Z,5.23
2018-04-28T07:52:42.510Z,4.77
2018-04-28T07:55:10.838Z,4.40
2018-04-28T07:57:38.383Z,4.77
2018-04-28T08:00:06.691Z,4.10
2018-04-28T08:02:34.255Z,4.47
2018-04-28T08:05:01.798Z,4.97
2018-04-28T08:07:30.135Z,5.60
2018-04-28T08:09:57.683Z,3.83
2018-04-28T08:12:25.318Z,4.37
2018-04-28T08:14:52.870Z,4.40
2018-04-28T08:17:21.202Z,4.33
2018-04-28T08:19:48.763Z,4.97
2018-04-28T08:22:17.115Z,4.47
2018-04-28T08:24:44.658Z,5.03
2018-04-28T08:27:12.224Z,4.40
2018-04-28T08:29:39.770Z,5.00
2018-04-28T08:32:07.332Z,4.10
2018-04-28T08:34:34.875Z,4.20
2018-04-28T08:37:02.484Z,4.10
2018-04-28T08:39:30.002Z,4.10
2018-04-28T08:41:57.570Z,3.40
2018-04-28T08:44:25.102Z,4.00
2018-04-28T08:46:53.426Z,4.73
2018-04-28T08:49:20.970Z,4.70
2018-04-28T08:51:49.292Z,4.20
2018-04-28T08:54:16.827Z,4.00
2018-04-28T08:56:45.276Z,3.30
2018-04-28T08:59:12.728Z,3.90
2018-04-28T09:01:40.286Z,3.30
2018-04-28T09:04:07.831Z,3.40
2018-04-28T09:06:36.198Z,3.70
2018-04-28T09:09:03.738Z,4.00
2018-04-28T09:11:31.306Z,3.90
2018-04-28T09:13:58.849Z,4.00
2018-04-28T09:16:26.418Z,4.50
2018-04-28T09:18:53.966Z,3.40
2018-04-28T09:21:21.530Z,4.30
2018-04-28T09:23:49.070Z,4.07
2018-04-28T09:26:16.733Z,3.70
2018-04-28T09:28:44.995Z,4.50
2018-04-28T09:31:12.570Z,4.40
2018-04-28T09:33:40.111Z,4.37
2018-04-28T09:36:08.459Z,3.03
2018-04-28T09:38:36.004Z,4.40
2018-04-28T09:41:03.579Z,3.30
2018-04-28T09:43:31.121Z,4.53
2018-04-28T09:45:59.434Z,3.50
2018-04-28T09:48:26.999Z,3.57
2018-04-28T09:50:55.308Z,3.07
2018-04-28T09:53:22.878Z,3.80
2018-04-28T09:55:50.415Z,3.00
2018-04-28T09:58:18.747Z,2.77
2018-04-28T10:00:50.863Z,2.50
2018-04-28T10:03:21.245Z,3.07
2018-04-28T10:05:48.825Z,3.33
2018-04-28T10:08:16.383Z,3.30
2018-04-28T10:10:43.932Z,2.67
2018-04-28T10:13:11.500Z,2.60
2018-04-28T10:15:39.052Z,2.90
2018-04-28T10:18:06.614Z,2.60
2018-04-28T10:20:34.155Z,3.47
2018-04-28T10:23:01.726Z,3.30
2018-04-28T10:25:29.271Z,3.60
2018-04-28T10:27:57.603Z,3.60
2018-04-28T10:30:25.150Z,3.80
2018-04-28T10:32:52.720Z,3.70
2018-04-28T10:35:20.271Z,3.67
2018-04-28T10:37:48.604Z,3.30
2018-04-28T10:40:16.163Z,3.83
2018-04-28T10:42:43.721Z,3.40
2018-04-28T10:45:11.267Z,3.30
2018-04-28T10:47:38.912Z,3.60
2018-04-28T10:50:07.195Z,2.93
2018-04-28T10:52:34.762Z,3.57
2018-04-28T10:55:02.310Z,3.10
2018-04-28T10:57:29.879Z,2.73
2018-04-28T10:59:57.421Z,3.30
2018-04-28T11:02:25.746Z,3.90
2018-04-28T11:04:53.294Z,3.90
2018-04-28T11:07:21.629Z,4.10
2018-04-28T11:09:49.176Z,3.80
2018-04-28T11:12:16.747Z,3.30
2018-04-28T11:14:44.294Z,3.93
2018-04-28T11:17:12.622Z,3.37
2018-04-28T11:19:40.212Z,3.70
2018-04-28T11:22:07.763Z,3.00
2018-04-28T11:24:35.307Z,3.60
2018-04-28T11:27:02.873Z,2.93
2018-04-28T11:29:31.186Z,3.67
2018-04-28T11:31:58.727Z,3.30
2018-04-28T11:34:27.060Z,3.20
2018-04-28T11:36:54.603Z,3.80
2018-04-28T11:39:22.167Z,2.80
2018-04-28T11:41:50.474Z,3.13
2018-04-28T11:44:18.046Z,3.13
2018-04-28T11:46:45.611Z,2.87
2018-04-28T11:49:13.174Z,3.60
2018-04-28T11:51:41.551Z,2.50
2018-04-28T11:54:09.076Z,3.30
2018-04-28T11:56:36.623Z,2.93
2018-04-28T11:59:04.230Z,2.83
2018-04-28T12:01:31.746Z,3.53
2018-04-28T12:04:00.077Z,3.67
2018-04-28T12:06:27.625Z,2.90
2018-04-28T12:08:55.197Z,3.40
2018-04-28T12:11:22.752Z,2.30
2018-04-28T12:13:51.075Z,2.47
2018-04-28T12:16:18.615Z,3.37
2018-04-28T12:18:46.184Z,3.17
2018-04-28T12:21:14.500Z,2.63
2018-04-28T12:23:42.061Z,2.17
2018-04-28T12:26:09.606Z,3.13
2018-04-28T12:28:37.938Z,2.77
2018-04-28T12:31:05.486Z,3.00
2018-04-28T12:33:33.052Z,3.80
2018-04-28T12:36:00.642Z,4.43
2018-04-28T12:38:28.186Z,3.20
2018-04-28T12:40:56.506Z,2.93
2018-04-28T12:43:24.063Z,2.97
2018-04-28T12:45:51.614Z,3.63
2018-04-28T12:48:19.942Z,2.70
2018-04-28T12:50:47.585Z,2.90
2018-04-28T12:53:15.086Z,2.80
2018-04-28T12:55:42.634Z,2.70
2018-04-28T12:58:10.198Z,2.70
2018-04-28T13:00:38.507Z,2.30
2018-04-28T13:03:06.077Z,2.40
2018-04-28T13:05:33.618Z,2.30
2018-04-28T13:08:01.947Z,2.50
2018-04-28T13:10:29.486Z,2.20
2018-04-28T13:12:57.790Z,2.43
2018-04-28T13:15:25.355Z,2.07
2018-04-28T13:17:52.895Z,2.70
2018-04-28T13:20:20.454Z,2.10
2018-04-28T13:22:48.004Z,2.50
2018-04-28T13:25:15.583Z,2.40
2018-04-28T13:27:43.126Z,1.57
2018-04-28T13:30:10.690Z,1.40
2018-04-28T13:32:38.237Z,1.93
2018-04-28T13:35:06.575Z,1.37
2018-04-28T13:37:34.119Z,1.50
2018-04-28T13:40:01.684Z,1.77
2018-04-28T13:42:29.992Z,2.30
2018-04-28T13:44:57.559Z,2.10
2018-04-28T13:47:25.102Z,2.00
2018-04-28T13:49:52.662Z,1.80
2018-04-28T13:52:20.202Z,1.83
2018-04-28T13:54:48.534Z,2.37
2018-04-28T13:57:16.838Z,1.90
2018-04-28T13:59:45.173Z,2.10
2018-04-28T14:02:12.720Z,1.90
2018-04-28T14:04:40.283Z,1.77
2018-04-28T14:07:07.819Z,1.87
2018-04-28T14:09:36.244Z,2.10
2018-04-28T14:12:03.726Z,2.53
2018-04-28T14:14:31.317Z,1.90
2018-04-28T14:16:58.866Z,1.70
2018-04-28T14:19:26.431Z,2.00
2018-04-28T14:21:53.983Z,2.03
2018-04-28T14:24:22.314Z,2.00
2018-04-28T14:26:49.859Z,2.30
2018-04-28T14:29:17.421Z,1.80
2018-04-28T14:31:45.731Z,1.77
2018-04-28T14:34:13.296Z,3.03
2018-04-28T14:36:40.843Z,2.30
2018-04-28T14:39:09.174Z,2.30
2018-04-28T14:41:36.725Z,2.27
2018-04-28T14:44:04.287Z,2.00
2018-04-28T14:46:32.597Z,2.00
2018-04-28T14:49:00.154Z,2.23
2018-04-28T14:51:27.700Z,2.63
2018-04-28T14:53:56.026Z,2.00
2018-04-28T14:56:23.573Z,2.40
2018-04-28T14:58:51.882Z,2.50
2018-04-28T15:01:19.466Z,1.87
2018-04-28T15:03:47.015Z,1.93
2018-04-28T15:06:14.578Z,2.40
2018-04-28T15:08:42.894Z,2.10
2018-04-28T15:11:10.460Z,2.30
2018-04-28T15:13:38.023Z,1.70
2018-04-28T15:16:05.575Z,2.47
2018-04-28T15:18:33.882Z,1.97
2018-04-28T15:21:01.456Z,1.90
2018-04-28T15:23:28.994Z,1.93
2018-04-28T15:25:56.551Z,2.30
2018-04-28T15:28:24.149Z,1.90
2018-04-28T15:30:51.682Z,1.73
2018-04-28T15:33:19.220Z,2.23
2018-04-28T15:35:47.330Z,2.30
2018-04-28T15:38:14.915Z,2.07
2018-04-28T15:40:42.483Z,2.10
2018-04-28T15:43:10.027Z,2.30
2018-04-28T15:45:37.592Z,1.90
2018-04-28T15:48:05.130Z,1.77
2018-04-28T15:50:33.463Z,1.80
2018-04-28T15:53:01.096Z,1.93
2018-04-28T15:55:28.759Z,1.70
2018-04-28T15:57:56.295Z,1.80
2018-04-28T16:00:23.860Z,1.97
2018-04-28T16:02:51.725Z,2.00
2018-04-28T16:05:20.281Z,2.50
2018-04-28T16:07:48.623Z,1.90
2018-04-28T16:10:16.196Z,2.10
2018-04-28T16:12:44.762Z,2.17
2018-04-28T16:15:12.766Z,1.97
2018-04-28T16:17:40.309Z,2.20
2018-04-28T16:20:07.875Z,1.50
2018-04-28T16:22:35.414Z,1.60
2018-04-28T16:25:02.984Z,1.53
2018-04-28T16:27:31.309Z,1.43
2018-04-28T16:29:58.891Z,1.10
2018-04-28T16:32:28.250Z,1.43
2018-04-28T16:34:55.819Z,1.00
2018-04-28T16:37:23.359Z,1.27
2018-04-28T16:39:51.690Z,1.20
2018-04-28T16:42:19.235Z,1.27
2018-04-28T16:44:46.785Z,1.50
2018-04-28T16:47:15.116Z,1.27
2018-04-28T16:49:42.658Z,1.30
2018-04-28T16:52:10.992Z,1.90
2018-04-28T16:54:38.539Z,1.17
2018-04-28T16:57:06.104Z,1.40
2018-04-28T16:59:33.650Z,1.23
2018-04-28T17:02:01.995Z,1.60
2018-04-28T17:04:29.544Z,1.80
2018-04-28T17:06:57.118Z,1.87
2018-04-28T17:09:24.654Z,1.43
2018-04-28T17:11:52.984Z,1.83
2018-04-28T17:14:20.526Z,1.60
2018-04-28T17:16:48.109Z,1.63
2018-04-28T17:19:15.650Z,1.33
2018-04-28T17:21:43.210Z,1.40
2018-04-28T17:24:10.755Z,1.50
2018-04-28T17:26:38.319Z,1.13
2018-04-28T17:29:05.861Z,1.30
2018-04-28T17:31:33.427Z,1.50
2018-04-28T17:34:00.977Z,1.10
2018-04-28T17:36:28.552Z,1.80
2018-04-28T17:38:56.094Z,1.30
2018-04-28T17:41:23.655Z,1.47
2018-04-28T17:43:51.200Z,1.53
2018-04-28T17:46:18.763Z,1.43
2018-04-28T17:48:46.306Z,1.20
2018-04-28T17:51:13.874Z,1.50
2018-04-28T17:53:41.418Z,1.47
2018-04-28T17:56:09.001Z,1.37
2018-04-28T17:58:36.539Z,1.47
2018-04-28T18:01:04.107Z,1.60
2018-04-28T18:03:31.647Z,1.90
2018-04-28T18:05:59.971Z,2.13
2018-04-28T18:08:27.515Z,2.27
2018-04-28T18:10:55.849Z,1.80
2018-04-28T18:13:23.392Z,1.60
2018-04-28T18:15:50.960Z,1.60
2018-04-28T18:18:18.502Z,1.40
2018-04-28T18:20:46.066Z,1.23
2018-04-28T18:23:13.605Z,1.53
2018-04-28T18:25:41.186Z,1.37
2018-04-28T18:28:09.523Z,1.40
2018-04-28T18:30:37.827Z,3.30
2018-04-28T18:33:05.391Z,2.10
2018-04-28T18:35:32.936Z,2.30
2018-04-28T18:38:00.498Z,1.50
2018-04-28T18:40:28.049Z,1.43
2018-04-28T18:42:55.618Z,1.87
2018-04-28T18:45:23.163Z,1.90
2018-04-28T18:47:50.726Z,2.10
2018-04-28T18:50:19.523Z,1.50
2018-04-28T18:52:47.940Z,1.80
2018-04-28T18:55:15.762Z,1.67
2018-04-28T18:57:44.116Z,1.40
2018-04-28T19:00:11.659Z,1.80
2018-04-28T19:02:39.222Z,1.50
2018-04-28T19:05:06.775Z,1.30
2018-04-28T19:07:35.113Z,1.97
2018-04-28T19:10:02.688Z,1.57
2018-04-28T19:12:30.295Z,2.27
2018-04-28T19:14:57.965Z,1.60
2018-04-28T19:17:25.534Z,2.07
2018-04-28T19:19:53.071Z,1.87
2018-04-28T19:22:20.634Z,1.50
2018-04-28T19:24:48.175Z,1.70
2018-04-28T19:27:16.507Z,1.83
2018-04-28T19:29:44.053Z,1.93
2018-04-28T19:32:11.619Z,1.70
2018-04-28T19:34:39.918Z,1.67
2018-04-28T19:37:07.483Z,1.97
2018-04-28T19:39:35.075Z,1.70
2018-04-28T19:42:02.642Z,2.23
2018-04-28T19:44:30.193Z,2.10
2018-04-28T19:46:57.841Z,1.80
2018-04-28T19:49:25.452Z,1.93
2018-04-28T19:51:53.027Z,3.27
2018-04-28T19:54:20.636Z,2.00
2018-04-28T19:56:48.235Z,1.73
2018-04-28T19:59:15.805Z,2.17
2018-04-28T20:01:43.354Z,2.03
2018-04-28T20:04:10.947Z,2.67
2018-04-28T20:06:39.271Z,2.07
2018-04-28T20:09:06.839Z,2.20
2018-04-28T20:11:34.386Z,2.80
2018-04-28T20:14:01.956Z,2.77
2018-04-28T20:16:29.532Z,2.70
2018-04-28T20:18:57.094Z,2.60
2018-04-28T20:21:24.643Z,3.13
2018-04-28T20:24:04.838Z,3.10
2018-04-28T20:26:32.383Z,3.37
2018-04-28T20:28:59.950Z,3.03
2018-04-28T20:31:27.508Z,3.50
2018-04-28T20:33:55.066Z,3.60
2018-04-28T20:36:22.631Z,3.57
2018-04-28T20:38:50.416Z,3.40
2018-04-28T20:41:17.900Z,3.40
2018-04-28T20:43:45.468Z,3.50
2018-04-28T20:46:13.014Z,3.77
2018-04-28T20:48:40.570Z,3.90
2018-04-28T20:51:08.874Z,3.03
2018-04-28T20:53:36.429Z,3.43
2018-04-28T20:56:04.796Z,3.90
2018-04-28T20:58:32.371Z,3.83
2018-04-28T21:00:59.913Z,4.03
2018-04-28T21:03:27.480Z,3.53
2018-04-28T21:05:55.034Z,4.10
2018-04-28T21:08:22.599Z,4.27
2018-04-28T21:10:50.144Z,3.57
2018-04-28T21:13:18.730Z,3.50
2018-04-28T21:15:47.197Z,3.67
2018-04-28T21:18:14.955Z,3.60
2018-04-28T21:20:43.538Z,3.30
2018-04-28T21:23:11.339Z,4.03
2018-04-28T21:25:39.975Z,3.30
2018-04-28T21:28:07.564Z,3.20
2018-04-28T21:30:35.935Z,3.50
2018-04-28T21:33:04.246Z,4.03
2018-04-28T21:35:32.586Z,3.10
2018-04-28T21:38:00.894Z,4.00
2018-04-28T21:40:28.462Z,3.90
2018-04-28T21:42:56.012Z,3.97
2018-04-28T21:45:23.582Z,3.40
2018-04-28T21:47:51.125Z,3.13
2018-04-28T21:50:18.691Z,3.30
2018-04-28T21:52:46.231Z,3.63
2018-04-28T21:55:13.803Z,3.30
2018-04-28T21:57:42.117Z,3.40
2018-04-28T22:00:09.683Z,2.77
2018-04-28T22:02:39.017Z,3.17
2018-04-28T22:05:06.590Z,3.00
2018-04-28T22:07:34.926Z,2.93
2018-04-28T22:10:02.491Z,3.13
2018-04-28T22:12:30.035Z,2.87
2018-04-28T22:14:57.612Z,2.77
2018-04-28T22:17:25.160Z,3.73
2018-04-28T22:19:52.724Z,3.80
2018-04-28T22:22:20.266Z,4.07
2018-04-28T22:24:48.598Z,3.30
2018-04-28T22:27:16.138Z,4.53
2018-04-28T22:29:44.479Z,3.90
2018-04-28T22:32:12.023Z,5.10
2018-04-28T22:34:39.562Z,4.87
2018-04-28T22:37:07.122Z,4.20
2018-04-28T22:39:34.676Z,4.10
2018-04-28T22:42:02.247Z,3.67
2018-04-28T22:44:29.792Z,3.50
2018-04-28T22:46:57.357Z,3.73
2018-04-28T22:49:24.907Z,3.50
2018-04-28T22:51:53.244Z,3.60
2018-04-28T22:54:20.800Z,3.90
2018-04-28T22:56:48.376Z,4.27
2018-04-28T22:59:15.923Z,3.50
2018-04-28T23:01:43.486Z,4.10
2018-04-28T23:04:11.799Z,4.10
2018-04-28T23:06:39.376Z,4.70
2018-04-28T23:09:06.928Z,4.93
2018-04-28T23:11:34.490Z,4.27
2018-04-28T23:14:02.795Z,4.47
2018-04-28T23:16:30.352Z,4.00
2018-04-28T23:18:57.900Z,3.93
2018-04-28T23:21:25.469Z,3.90
2018-04-28T23:23:53.007Z,4.30
2018-04-28T23:26:20.568Z,3.53
2018-04-28T23:28:48.154Z,3.90
2018-04-28T23:31:15.712Z,3.70
2018-04-28T23:33:43.255Z,4.30
2018-04-28T23:36:10.811Z,3.50
2018-04-28T23:38:39.125Z,4.47
2018-04-28T23:41:06.686Z,3.80
2018-04-28T23:43:34.234Z,5.07
2018-04-28T23:46:01.783Z,4.80
2018-04-28T23:48:29.338Z,4.30
2018-04-28T23:50:56.883Z,5.03
2018-04-28T23:53:24.454Z,5.23
2018-04-28T23:55:52.009Z,5.20
2018-04-28T23:58:20.369Z,4.43
